createdAt,value
2022-10-13T08:31:30.513Z,13.23
2022-10-13T08:41:43.825Z,11.48
2022-10-13T09:22:55.193Z,11.02
2022-10-13T09:38:17.606Z,10.93
2022-10-13T09:48:29.498Z,12.45
2022-10-13T09:53:32.213Z,12.50
2022-10-13T09:58:32.280Z,11.30
2022-10-13T10:03:33.567Z,12.57
2022-10-13T10:29:13.084Z,13.07
2022-10-13T10:34:30.238Z,12.55
2022-10-13T10:44:33.167Z,12.55
2022-10-13T10:54:39.051Z,11.25
2022-10-13T10:59:52.920Z,10.48
2022-10-13T11:04:48.054Z,12.55
2022-10-13T11:30:51.498Z,11.55
2022-10-13T11:35:44.870Z,12.32
2022-10-13T11:41:01.261Z,11.23
2022-10-13T12:01:27.857Z,9.73
2022-10-13T12:06:35.736Z,11.52
2022-10-13T12:11:33.290Z,11.52
2022-10-13T12:16:28.804Z,11.88
2022-10-13T12:21:24.787Z,12.30
2022-10-13T12:31:40.463Z,11.27
2022-10-13T12:36:36.543Z,12.40
2022-10-13T12:41:41.968Z,12.40
2022-10-13T12:46:43.153Z,9.52
2022-10-13T12:51:39.525Z,11.82
2022-10-13T12:56:35.009Z,10.43
2022-10-13T13:01:34.036Z,12.88
2022-10-13T13:06:35.086Z,10.85
2022-10-13T13:11:37.687Z,12.00
2022-10-13T13:16:30.906Z,13.07
2022-10-13T13:21:24.189Z,11.70
2022-10-13T13:26:22.577Z,10.98
2022-10-13T13:31:20.061Z,10.63
2022-10-13T13:36:19.750Z,11.70
2022-10-13T13:41:14.564Z,11.30
2022-10-13T13:46:16.581Z,11.18
2022-10-13T13:51:10.856Z,9.95
2022-10-13T13:56:04.334Z,10.90
2022-10-13T14:00:57.722Z,11.60
2022-10-13T14:05:52.295Z,11.30
2022-10-13T14:10:45.546Z,9.38
2022-10-13T14:15:38.816Z,11.18
2022-10-13T14:20:32.055Z,9.45
2022-10-13T14:30:40.553Z,10.13
2022-10-13T14:45:56.405Z,10.57
2022-10-13T14:50:49.724Z,11.73
2022-10-13T15:00:44.877Z,10.35
2022-10-13T15:05:39.910Z,11.30
2022-10-13T15:10:33.180Z,11.65
2022-10-13T15:15:26.533Z,10.50
2022-10-13T15:20:19.958Z,9.82
2022-10-13T15:25:14.817Z,10.80
2022-10-13T15:30:10.175Z,9.93
2022-10-13T15:35:03.398Z,11.10
2022-10-13T15:39:57.697Z,9.93
2022-10-13T16:07:02.737Z,11.23
2022-10-13T17:31:05.004Z,11.70
2022-10-13T17:35:57.711Z,12.32
2022-10-13T17:40:51.862Z,12.85
2022-10-13T17:45:46.627Z,13.90
2022-10-13T17:50:41.468Z,14.55
2022-10-13T19:13:40.389Z,5.05
2022-10-13T19:23:35.329Z,4.47
2022-10-13T19:33:30.470Z,3.80
2022-10-13T19:38:23.695Z,4.32
2022-10-13T19:43:17.983Z,4.22
2022-10-13T19:48:11.580Z,4.18
2022-10-13T19:53:06.499Z,4.65
2022-10-13T19:57:59.901Z,4.57
2022-10-13T20:02:53.236Z,4.15
2022-10-13T20:07:46.495Z,4.53
2022-10-13T20:12:41.231Z,4.28
2022-10-13T20:17:34.575Z,5.40
2022-10-13T20:22:27.859Z,5.70
2022-10-13T20:32:32.939Z,6.88
2022-10-13T20:37:26.290Z,7.25
2022-10-13T20:42:19.658Z,6.20
2022-10-13T20:47:12.976Z,5.63
2022-10-13T20:52:07.817Z,5.57
2022-10-13T21:02:10.507Z,6.07
2022-10-13T21:12:06.152Z,5.80
2022-10-13T21:58:17.916Z,6.03
